sensor_id;sensor_type;location;lat;lon;timestamp;pressure;altitude;pressure_sealevel;temperature;humidity
14269;BME280;7218;51.480;7.006;2023-02-28T00:01:26;102061.47;;;3.24;72.93
14269;BME280;7218;51.480;7.006;2023-02-28T00:03:52;102059.13;;;3.30;72.65
14269;BME280;7218;51.480;7.006;2023-02-28T00:06:20;102054.84;;;3.30;72.17
14269;BME280;7218;51.480;7.006;2023-02-28T00:08:47;102054.13;;;3.34;72.51
14269;BME280;7218;51.480;7.006;2023-02-28T00:11:14;102053.22;;;3.32;71.86
14269;BME280;7218;51.480;7.006;2023-02-28T00:13:42;102064.34;;;3.31;72.23
14269;BME280;7218;51.480;7.006;2023-02-28T00:16:15;102060.72;;;3.26;73.16
14269;BME280;7218;51.480;7.006;2023-02-28T00:18:43;102071.66;;;3.21;72.84
14269;BME280;7218;51.480;7.006;2023-02-28T00:21:10;102071.56;;;3.18;73.59
14269;BME280;7218;51.480;7.006;2023-02-28T00:23:36;102065.63;;;3.20;73.15
14269;BME280;7218;51.480;7.006;2023-02-28T00:26:04;102065.69;;;3.22;73.00
14269;BME280;7218;51.480;7.006;2023-02-28T00:28:31;102066.16;;;3.12;73.52
14269;BME280;7218;51.480;7.006;2023-02-28T00:30:58;102065.63;;;3.20;73.21
14269;BME280;7218;51.480;7.006;2023-02-28T00:33:26;102062.41;;;3.26;72.95
14269;BME280;7218;51.480;7.006;2023-02-28T00:36:01;102061.97;;;3.15;73.31
14269;BME280;7218;51.480;7.006;2023-02-28T00:38:28;102064.22;;;3.06;73.38
14269;BME280;7218;51.480;7.006;2023-02-28T00:40:55;102069.78;;;3.17;73.52
14269;BME280;7218;51.480;7.006;2023-02-28T00:43:21;102062.78;;;3.14;73.09
14269;BME280;7218;51.480;7.006;2023-02-28T00:45:48;102060.19;;;3.13;72.82
14269;BME280;7218;51.480;7.006;2023-02-28T00:48:15;102059.31;;;3.12;72.40
14269;BME280;7218;51.480;7.006;2023-02-28T00:50:43;102060.00;;;3.08;72.76
14269;BME280;7218;51.480;7.006;2023-02-28T00:53:10;102056.53;;;3.08;71.98
14269;BME280;7218;51.480;7.006;2023-02-28T00:55:37;102061.97;;;3.15;71.74
14269;BME280;7218;51.480;7.006;2023-02-28T00:58:03;102075.31;;;3.05;72.00
14269;BME280;7218;51.480;7.006;2023-02-28T01:00:30;102067.59;;;3.05;71.38
14269;BME280;7218;51.480;7.006;2023-02-28T01:02:56;102076.97;;;3.03;71.26
14269;BME280;7218;51.480;7.006;2023-02-28T01:05:23;102076.28;;;3.07;70.34
14269;BME280;7218;51.480;7.006;2023-02-28T01:07:51;102072.13;;;3.11;70.52
14269;BME280;7218;51.480;7.006;2023-02-28T01:10:17;102076.66;;;2.95;70.98
14269;BME280;7218;51.480;7.006;2023-02-28T01:12:44;102083.19;;;3.08;70.36
14269;BME280;7218;51.480;7.006;2023-02-28T01:15:11;102078.03;;;3.08;70.17
14269;BME280;7218;51.480;7.006;2023-02-28T01:17:38;102080.63;;;3.08;70.16
14269;BME280;7218;51.480;7.006;2023-02-28T01:20:06;102077.28;;;3.11;69.24
14269;BME280;7218;51.480;7.006;2023-02-28T01:22:34;102089.41;;;3.13;69.63
14269;BME280;7218;51.480;7.006;2023-02-28T01:25:02;102083.56;;;3.17;69.17
14269;BME280;7218;51.480;7.006;2023-02-28T01:27:28;102081.34;;;3.06;69.48
14269;BME280;7218;51.480;7.006;2023-02-28T01:29:55;102083.66;;;2.98;69.39
14269;BME280;7218;51.480;7.006;2023-02-28T01:32:22;102078.72;;;3.04;69.13
14269;BME280;7218;51.480;7.006;2023-02-28T01:34:48;102071.81;;;3.03;69.01
14269;BME280;7218;51.480;7.006;2023-02-28T01:37:15;102075.78;;;2.95;69.45
14269;BME280;7218;51.480;7.006;2023-02-28T01:39:41;102074.59;;;2.87;70.38
14269;BME280;7218;51.480;7.006;2023-02-28T01:42:10;102072.28;;;2.93;70.51
14269;BME280;7218;51.480;7.006;2023-02-28T01:45:00;102071.25;;;2.89;70.24
14269;BME280;7218;51.480;7.006;2023-02-28T01:47:29;102069.19;;;2.81;70.27
14269;BME280;7218;51.480;7.006;2023-02-28T01:49:57;102065.72;;;2.80;70.48
14269;BME280;7218;51.480;7.006;2023-02-28T01:52:25;102063.50;;;2.67;70.54
14269;BME280;7218;51.480;7.006;2023-02-28T01:54:55;102064.28;;;2.66;70.45
14269;BME280;7218;51.480;7.006;2023-02-28T01:57:28;102061.91;;;2.71;70.65
14269;BME280;7218;51.480;7.006;2023-02-28T01:59:58;102053.00;;;2.63;70.61
14269;BME280;7218;51.480;7.006;2023-02-28T02:02:25;102058.88;;;2.60;70.90
14269;BME280;7218;51.480;7.006;2023-02-28T02:04:55;102051.75;;;2.53;71.06
14269;BME280;7218;51.480;7.006;2023-02-28T02:07:23;102058.50;;;2.51;71.46
14269;BME280;7218;51.480;7.006;2023-02-28T02:09:59;102045.00;;;2.56;71.20
14269;BME280;7218;51.480;7.006;2023-02-28T02:12:39;102037.19;;;2.53;71.55
14269;BME280;7218;51.480;7.006;2023-02-28T02:15:12;102038.69;;;2.48;71.07
14269;BME280;7218;51.480;7.006;2023-02-28T02:17:44;102029.94;;;2.45;71.38
14269;BME280;7218;51.480;7.006;2023-02-28T02:20:44;102034.41;;;2.49;71.55
14269;BME280;7218;51.480;7.006;2023-02-28T02:23:31;102028.94;;;2.41;71.91
14269;BME280;7218;51.480;7.006;2023-02-28T02:26:14;102027.97;;;2.39;72.07
14269;BME280;7218;51.480;7.006;2023-02-28T02:29:01;102024.03;;;2.47;72.17
14269;BME280;7218;51.480;7.006;2023-02-28T02:31:47;102028.38;;;2.48;72.00
14269;BME280;7218;51.480;7.006;2023-02-28T02:34:31;102033.28;;;2.42;71.82
14269;BME280;7218;51.480;7.006;2023-02-28T02:37:11;102033.28;;;2.42;71.86
14269;BME280;7218;51.480;7.006;2023-02-28T02:39:47;102030.63;;;2.41;71.88
14269;BME280;7218;51.480;7.006;2023-02-28T02:42:21;102034.00;;;2.40;72.40
14269;BME280;7218;51.480;7.006;2023-02-28T02:44:55;102036.78;;;2.44;72.19
14269;BME280;7218;51.480;7.006;2023-02-28T02:47:24;102038.03;;;2.33;72.87
14269;BME280;7218;51.480;7.006;2023-02-28T02:49:56;102032.28;;;2.39;72.62
14269;BME280;7218;51.480;7.006;2023-02-28T02:52:30;102031.50;;;2.41;72.77
14269;BME280;7218;51.480;7.006;2023-02-28T02:55:00;102029.88;;;2.43;72.43
14269;BME280;7218;51.480;7.006;2023-02-28T02:57:30;102034.97;;;2.42;72.97
14269;BME280;7218;51.480;7.006;2023-02-28T03:00:00;102034.09;;;2.41;72.09
14269;BME280;7218;51.480;7.006;2023-02-28T03:02:29;102035.50;;;2.35;72.10
14269;BME280;7218;51.480;7.006;2023-02-28T03:05:03;102036.34;;;2.34;72.34
14269;BME280;7218;51.480;7.006;2023-02-28T03:07:30;102039.53;;;2.28;72.36
14269;BME280;7218;51.480;7.006;2023-02-28T03:09:57;102040.34;;;2.27;72.89
14269;BME280;7218;51.480;7.006;2023-02-28T03:12:32;102040.66;;;2.35;72.59
14269;BME280;7218;51.480;7.006;2023-02-28T03:15:08;102039.81;;;2.15;73.23
14269;BME280;7218;51.480;7.006;2023-02-28T03:17:50;102037.94;;;2.11;73.16
14269;BME280;7218;51.480;7.006;2023-02-28T03:20:29;102041.66;;;2.17;73.49
14269;BME280;7218;51.480;7.006;2023-02-28T03:23:06;102036.31;;;2.13;73.81
14269;BME280;7218;51.480;7.006;2023-02-28T03:25:42;102035.50;;;2.14;73.79
14269;BME280;7218;51.480;7.006;2023-02-28T03:28:15;102038.19;;;2.17;73.62
14269;BME280;7218;51.480;7.006;2023-02-28T03:30:48;102030.47;;;2.17;73.30
14269;BME280;7218;51.480;7.006;2023-02-28T03:33:21;102028.53;;;2.11;73.34
14269;BME280;7218;51.480;7.006;2023-02-28T03:35:53;102039.78;;;2.13;73.08
14269;BME280;7218;51.480;7.006;2023-02-28T03:38:23;102037.84;;;2.09;73.95
14269;BME280;7218;51.480;7.006;2023-02-28T03:40:58;102036.50;;;2.17;73.54
14269;BME280;7218;51.480;7.006;2023-02-28T03:43:29;102043.28;;;2.15;73.51
14269;BME280;7218;51.480;7.006;2023-02-28T03:46:00;102044.03;;;2.13;73.83
14269;BME280;7218;51.480;7.006;2023-02-28T03:48:32;102045.03;;;2.16;73.24
14269;BME280;7218;51.480;7.006;2023-02-28T03:51:04;102046.47;;;2.10;73.73
14269;BME280;7218;51.480;7.006;2023-02-28T03:53:35;102046.63;;;2.13;73.61
14269;BME280;7218;51.480;7.006;2023-02-28T03:56:06;102041.88;;;2.03;73.41
14269;BME280;7218;51.480;7.006;2023-02-28T03:58:39;102044.31;;;2.00;73.41
14269;BME280;7218;51.480;7.006;2023-02-28T04:01:12;102047.84;;;2.02;73.48
14269;BME280;7218;51.480;7.006;2023-02-28T04:03:41;102050.22;;;1.97;73.55
14269;BME280;7218;51.480;7.006;2023-02-28T04:06:15;102042.69;;;2.02;73.59
14269;BME280;7218;51.480;7.006;2023-02-28T04:08:42;102050.09;;;1.94;73.95
14269;BME280;7218;51.480;7.006;2023-02-28T04:11:18;102047.97;;;2.05;73.57
14269;BME280;7218;51.480;7.006;2023-02-28T04:13:46;102045.56;;;1.89;73.94
14269;BME280;7218;51.480;7.006;2023-02-28T04:16:13;102052.50;;;1.91;73.41
14269;BME280;7218;51.480;7.006;2023-02-28T04:18:40;102044.47;;;1.84;73.90
14269;BME280;7218;51.480;7.006;2023-02-28T04:21:10;102046.19;;;1.85;73.91
14269;BME280;7218;51.480;7.006;2023-02-28T04:23:37;102050.13;;;1.77;73.51
14269;BME280;7218;51.480;7.006;2023-02-28T04:26:04;102045.00;;;1.77;73.81
14269;BME280;7218;51.480;7.006;2023-02-28T04:28:31;102054.69;;;1.82;73.49
14269;BME280;7218;51.480;7.006;2023-02-28T04:30:58;102046.19;;;1.85;73.12
14269;BME280;7218;51.480;7.006;2023-02-28T04:33:25;102053.53;;;1.76;73.71
14269;BME280;7218;51.480;7.006;2023-02-28T04:35:58;102058.81;;;1.79;73.54
14269;BME280;7218;51.480;7.006;2023-02-28T04:38:26;102056.97;;;1.76;73.80
14269;BME280;7218;51.480;7.006;2023-02-28T04:40:52;102061.84;;;1.70;73.96
14269;BME280;7218;51.480;7.006;2023-02-28T04:43:19;102059.94;;;1.66;73.75
14269;BME280;7218;51.480;7.006;2023-02-28T04:45:45;102056.91;;;1.74;74.09
14269;BME280;7218;51.480;7.006;2023-02-28T04:48:12;102060.91;;;1.68;73.47
14269;BME280;7218;51.480;7.006;2023-02-28T04:50:38;102062.59;;;1.67;73.27
14269;BME280;7218;51.480;7.006;2023-02-28T04:53:05;102071.41;;;1.72;73.45
14269;BME280;7218;51.480;7.006;2023-02-28T04:55:32;102064.75;;;1.78;73.30
14269;BME280;7218;51.480;7.006;2023-02-28T04:57:59;102058.34;;;1.68;73.60
14269;BME280;7218;51.480;7.006;2023-02-28T05:00:25;102060.81;;;1.66;73.31
14269;BME280;7218;51.480;7.006;2023-02-28T05:02:52;102063.53;;;1.69;73.27
14269;BME280;7218;51.480;7.006;2023-02-28T05:05:18;102064.28;;;1.67;73.18
14269;BME280;7218;51.480;7.006;2023-02-28T05:07:45;102065.84;;;1.63;73.00
14269;BME280;7218;51.480;7.006;2023-02-28T05:10:11;102062.44;;;1.64;72.94
14269;BME280;7218;51.480;7.006;2023-02-28T05:12:39;102075.66;;;1.72;72.98
14269;BME280;7218;51.480;7.006;2023-02-28T05:15:07;102072.72;;;1.64;73.13
14269;BME280;7218;51.480;7.006;2023-02-28T05:17:34;102078.69;;;1.63;73.04
14269;BME280;7218;51.480;7.006;2023-02-28T05:20:01;102072.47;;;1.58;72.92
14269;BME280;7218;51.480;7.006;2023-02-28T05:22:29;102073.16;;;1.54;72.89
14269;BME280;7218;51.480;7.006;2023-02-28T05:24:56;102072.31;;;1.55;72.87
14269;BME280;7218;51.480;7.006;2023-02-28T05:27:22;102073.16;;;1.54;72.96
14269;BME280;7218;51.480;7.006;2023-02-28T05:29:51;102076.72;;;1.58;72.53
14269;BME280;7218;51.480;7.006;2023-02-28T05:32:18;102081.72;;;1.55;71.88
14269;BME280;7218;51.480;7.006;2023-02-28T05:34:44;102083.69;;;1.60;72.13
14269;BME280;7218;51.480;7.006;2023-02-28T05:37:12;102080.97;;;1.57;72.48
14269;BME280;7218;51.480;7.006;2023-02-28T05:39:39;102079.75;;;1.49;72.49
14269;BME280;7218;51.480;7.006;2023-02-28T05:42:05;102083.13;;;1.48;72.51
14269;BME280;7218;51.480;7.006;2023-02-28T05:44:32;102085.63;;;1.47;72.77
14269;BME280;7218;51.480;7.006;2023-02-28T05:47:00;102091.78;;;1.50;72.72
14269;BME280;7218;51.480;7.006;2023-02-28T05:49:27;102093.25;;;1.45;72.34
14269;BME280;7218;51.480;7.006;2023-02-28T05:51:53;102084.63;;;1.43;71.82
14269;BME280;7218;51.480;7.006;2023-02-28T05:54:20;102089.34;;;1.34;72.59
14269;BME280;7218;51.480;7.006;2023-02-28T05:56:46;102095.41;;;1.36;72.52
14269;BME280;7218;51.480;7.006;2023-02-28T05:59:13;102096.84;;;1.29;72.56
14269;BME280;7218;51.480;7.006;2023-02-28T06:01:41;102099.44;;;1.31;72.56
14269;BME280;7218;51.480;7.006;2023-02-28T06:04:15;102098.44;;;1.27;72.46
14269;BME280;7218;51.480;7.006;2023-02-28T06:06:44;102097.56;;;1.27;72.13
14269;BME280;7218;51.480;7.006;2023-02-28T06:09:11;102095.31;;;1.35;72.41
14269;BME280;7218;51.480;7.006;2023-02-28T06:11:38;102101.09;;;1.29;72.17
14269;BME280;7218;51.480;7.006;2023-02-28T06:14:05;102108.13;;;1.33;72.27
14269;BME280;7218;51.480;7.006;2023-02-28T06:16:33;102110.09;;;1.39;72.02
14269;BME280;7218;51.480;7.006;2023-02-28T06:19:01;102104.88;;;1.37;72.06
14269;BME280;7218;51.480;7.006;2023-02-28T06:24:01;102120.38;;;1.39;72.29
14269;BME280;7218;51.480;7.006;2023-02-28T06:26:28;102113.09;;;1.30;72.30
14269;BME280;7218;51.480;7.006;2023-02-28T06:28:54;102117.94;;;1.42;71.77
14269;BME280;7218;51.480;7.006;2023-02-28T06:31:21;102126.53;;;1.42;71.62
14269;BME280;7218;51.480;7.006;2023-02-28T06:33:49;102122.63;;;1.50;71.74
14269;BME280;7218;51.480;7.006;2023-02-28T06:36:17;102120.56;;;1.61;71.10
14269;BME280;7218;51.480;7.006;2023-02-28T06:38:44;102124.81;;;1.60;70.11
14269;BME280;7218;51.480;7.006;2023-02-28T06:41:12;102125.66;;;1.59;70.15
14269;BME280;7218;51.480;7.006;2023-02-28T06:43:41;102120.63;;;1.62;69.70
14269;BME280;7218;51.480;7.006;2023-02-28T06:46:10;102127.88;;;1.71;68.89
14269;BME280;7218;51.480;7.006;2023-02-28T06:48:37;102125.66;;;1.59;69.60
14269;BME280;7218;51.480;7.006;2023-02-28T06:51:07;102129.38;;;1.66;69.61
14269;BME280;7218;51.480;7.006;2023-02-28T06:53:34;102123.50;;;1.68;69.34
14269;BME280;7218;51.480;7.006;2023-02-28T06:56:03;102129.06;;;1.78;69.27
14269;BME280;7218;51.480;7.006;2023-02-28T06:58:32;102138.06;;;1.87;68.61
14269;BME280;7218;51.480;7.006;2023-02-28T07:00:58;102130.88;;;1.80;68.79
14269;BME280;7218;51.480;7.006;2023-02-28T07:03:25;102130.28;;;1.86;68.15
14269;BME280;7218;51.480;7.006;2023-02-28T07:05:51;102135.88;;;1.77;68.07
14269;BME280;7218;51.480;7.006;2023-02-28T07:08:18;102132.94;;;1.87;68.14
14269;BME280;7218;51.480;7.006;2023-02-28T07:10:44;102136.22;;;1.85;68.00
14269;BME280;7218;51.480;7.006;2023-02-28T07:13:11;102136.66;;;1.94;68.11
14269;BME280;7218;51.480;7.006;2023-02-28T07:15:39;102137.97;;;2.03;67.72
14269;BME280;7218;51.480;7.006;2023-02-28T07:18:05;102136.41;;;2.07;67.47
14269;BME280;7218;51.480;7.006;2023-02-28T07:20:31;102138.28;;;2.11;67.42
14269;BME280;7218;51.480;7.006;2023-02-28T07:22:58;102146.00;;;2.11;67.60
14269;BME280;7218;51.480;7.006;2023-02-28T07:25:27;102139.53;;;2.19;66.88
14269;BME280;7218;51.480;7.006;2023-02-28T07:27:54;102144.72;;;2.21;67.51
14269;BME280;7218;51.480;7.006;2023-02-28T07:30:20;102144.38;;;2.32;66.30
14269;BME280;7218;51.480;7.006;2023-02-28T07:32:48;102145.06;;;2.47;65.67
14269;BME280;7218;51.480;7.006;2023-02-28T07:35:15;102141.41;;;2.42;64.80
14269;BME280;7218;51.480;7.006;2023-02-28T07:37:41;102142.19;;;2.60;64.80
14269;BME280;7218;51.480;7.006;2023-02-28T07:40:10;102150.72;;;2.59;64.57
14269;BME280;7218;51.480;7.006;2023-02-28T07:42:37;102153.28;;;2.59;64.12
14269;BME280;7218;51.480;7.006;2023-02-28T07:45:05;102155.44;;;2.70;64.23
14269;BME280;7218;51.480;7.006;2023-02-28T07:47:32;102156.50;;;2.75;63.68
14269;BME280;7218;51.480;7.006;2023-02-28T07:50:00;102145.13;;;2.89;63.39
14269;BME280;7218;51.480;7.006;2023-02-28T07:52:26;102152.84;;;2.89;62.76
14269;BME280;7218;51.480;7.006;2023-02-28T07:54:53;102145.41;;;2.96;61.93
14269;BME280;7218;51.480;7.006;2023-02-28T07:57:19;102143.38;;;2.89;61.88
14269;BME280;7218;51.480;7.006;2023-02-28T07:59:46;102148.00;;;2.96;62.11
14269;BME280;7218;51.480;7.006;2023-02-28T08:02:13;102152.63;;;3.05;61.93
14269;BME280;7218;51.480;7.006;2023-02-28T08:04:40;102145.84;;;3.07;61.29
14269;BME280;7218;51.480;7.006;2023-02-28T08:07:08;102154.78;;;3.15;59.62
14269;BME280;7218;51.480;7.006;2023-02-28T08:09:37;102158.59;;;3.25;59.65
14269;BME280;7218;51.480;7.006;2023-02-28T08:12:03;102160.47;;;3.29;58.73
14269;BME280;7218;51.480;7.006;2023-02-28T08:14:30;102162.38;;;3.33;58.30
14269;BME280;7218;51.480;7.006;2023-02-28T08:16:56;102168.34;;;3.53;58.14
14269;BME280;7218;51.480;7.006;2023-02-28T08:19:23;102170.03;;;3.52;57.63
14269;BME280;7218;51.480;7.006;2023-02-28T08:21:49;102165.16;;;3.60;57.39
14269;BME280;7218;51.480;7.006;2023-02-28T08:24:17;102163.88;;;3.71;57.28
14269;BME280;7218;51.480;7.006;2023-02-28T08:26:44;102162.28;;;3.74;56.59
14269;BME280;7218;51.480;7.006;2023-02-28T08:29:10;102160.94;;;3.84;56.20
14269;BME280;7218;51.480;7.006;2023-02-28T08:31:37;102163.41;;;4.03;54.91
14269;BME280;7218;51.480;7.006;2023-02-28T08:34:05;102159.56;;;4.40;54.88
14269;BME280;7218;51.480;7.006;2023-02-28T08:36:31;102154.94;;;4.55;53.01
14269;BME280;7218;51.480;7.006;2023-02-28T08:38:58;102153.91;;;4.75;52.73
14269;BME280;7218;51.480;7.006;2023-02-28T08:41:26;102149.72;;;5.04;51.63
14269;BME280;7218;51.480;7.006;2023-02-28T08:43:52;102148.72;;;5.26;51.22
14269;BME280;7218;51.480;7.006;2023-02-28T08:46:19;102150.44;;;5.52;50.10
14269;BME280;7218;51.480;7.006;2023-02-28T08:48:46;102143.31;;;5.73;48.30
14269;BME280;7218;51.480;7.006;2023-02-28T08:51:14;102142.59;;;6.05;48.01
14269;BME280;7218;51.480;7.006;2023-02-28T08:53:44;102142.09;;;6.19;46.03
14269;BME280;7218;51.480;7.006;2023-02-28T08:56:12;102139.94;;;6.34;45.55
14269;BME280;7218;51.480;7.006;2023-02-28T08:58:40;102142.06;;;6.48;44.68
14269;BME280;7218;51.480;7.006;2023-02-28T09:01:08;102134.81;;;6.68;44.27
14269;BME280;7218;51.480;7.006;2023-02-28T09:03:35;102137.97;;;6.57;42.83
14269;BME280;7218;51.480;7.006;2023-02-28T09:06:02;102131.66;;;6.80;42.32
14269;BME280;7218;51.480;7.006;2023-02-28T09:08:30;102133.00;;;6.99;41.47
14269;BME280;7218;51.480;7.006;2023-02-28T09:10:57;102131.91;;;7.25;40.77
14269;BME280;7218;51.480;7.006;2023-02-28T09:13:25;102126.47;;;7.50;40.41
14269;BME280;7218;51.480;7.006;2023-02-28T09:15:53;102127.53;;;7.22;39.07
14269;BME280;7218;51.480;7.006;2023-02-28T09:18:20;102126.00;;;7.30;38.94
14269;BME280;7218;51.480;7.006;2023-02-28T09:20:46;102120.16;;;7.78;39.95
14269;BME280;7218;51.480;7.006;2023-02-28T09:23:13;102121.91;;;7.79;39.25
14269;BME280;7218;51.480;7.006;2023-02-28T09:25:45;102123.25;;;8.01;39.09
14269;BME280;7218;51.480;7.006;2023-02-28T09:28:12;102118.19;;;8.08;37.52
14269;BME280;7218;51.480;7.006;2023-02-28T09:30:40;102117.28;;;8.48;37.14
14269;BME280;7218;51.480;7.006;2023-02-28T09:33:08;102128.47;;;8.44;36.34
14269;BME280;7218;51.480;7.006;2023-02-28T09:35:35;102123.50;;;8.56;35.75
14269;BME280;7218;51.480;7.006;2023-02-28T09:38:02;102121.03;;;8.64;35.39
14269;BME280;7218;51.480;7.006;2023-02-28T09:40:29;102121.44;;;8.88;35.52
14269;BME280;7218;51.480;7.006;2023-02-28T09:42:57;102116.25;;;8.88;34.71
14269;BME280;7218;51.480;7.006;2023-02-28T09:45:29;102123.28;;;8.94;33.85
14269;BME280;7218;51.480;7.006;2023-02-28T09:47:59;102122.00;;;9.22;34.58
14269;BME280;7218;51.480;7.006;2023-02-28T09:50:35;102118.91;;;8.91;34.37
14269;BME280;7218;51.480;7.006;2023-02-28T09:53:13;102122.38;;;9.47;34.07
14269;BME280;7218;51.480;7.006;2023-02-28T09:55:44;102124.06;;;9.42;33.50
14269;BME280;7218;51.480;7.006;2023-02-28T09:58:20;102123.09;;;9.99;33.15
14269;BME280;7218;51.480;7.006;2023-02-28T10:00:56;102115.06;;;10.53;32.62
14269;BME280;7218;51.480;7.006;2023-02-28T10:03:29;102112.84;;;10.97;32.97
14269;BME280;7218;51.480;7.006;2023-02-28T10:06:02;102113.22;;;11.47;30.52
14269;BME280;7218;51.480;7.006;2023-02-28T10:08:36;102118.72;;;11.85;30.73
14269;BME280;7218;51.480;7.006;2023-02-28T10:11:07;102107.41;;;11.89;29.36
14269;BME280;7218;51.480;7.006;2023-02-28T10:13:38;102109.72;;;11.44;30.41
14269;BME280;7218;51.480;7.006;2023-02-28T10:16:11;102112.47;;;11.63;31.19
14269;BME280;7218;51.480;7.006;2023-02-28T10:18:43;102112.47;;;11.65;29.92
14269;BME280;7218;51.480;7.006;2023-02-28T10:21:19;102097.16;;;12.77;29.25
14269;BME280;7218;51.480;7.006;2023-02-28T10:23:48;102102.44;;;13.12;29.24
14269;BME280;7218;51.480;7.006;2023-02-28T10:26:17;102101.53;;;12.89;29.43
14269;BME280;7218;51.480;7.006;2023-02-28T10:28:44;102089.22;;;13.68;28.98
14269;BME280;7218;51.480;7.006;2023-02-28T10:31:11;102100.50;;;13.92;27.79
14269;BME280;7218;51.480;7.006;2023-02-28T10:33:41;102102.22;;;12.07;28.35
14269;BME280;7218;51.480;7.006;2023-02-28T10:36:10;102100.19;;;11.52;29.93
14269;BME280;7218;51.480;7.006;2023-02-28T10:38:41;102099.16;;;11.24;30.00
14269;BME280;7218;51.480;7.006;2023-02-28T10:41:09;102103.06;;;11.93;29.63
14269;BME280;7218;51.480;7.006;2023-02-28T10:43:37;102084.84;;;12.22;29.13
14269;BME280;7218;51.480;7.006;2023-02-28T10:46:11;102096.16;;;12.08;30.42
14269;BME280;7218;51.480;7.006;2023-02-28T10:49:00;102088.44;;;13.09;27.08
14269;BME280;7218;51.480;7.006;2023-02-28T10:51:35;102091.94;;;12.74;26.58
14269;BME280;7218;51.480;7.006;2023-02-28T10:54:04;102080.59;;;12.69;27.45
14269;BME280;7218;51.480;7.006;2023-02-28T10:56:31;102077.66;;;14.10;26.09
14269;BME280;7218;51.480;7.006;2023-02-28T10:59:00;102086.22;;;15.49;24.71
14269;BME280;7218;51.480;7.006;2023-02-28T11:01:36;102073.91;;;15.55;23.83
14269;BME280;7218;51.480;7.006;2023-02-28T11:04:03;102075.03;;;16.06;22.72
14269;BME280;7218;51.480;7.006;2023-02-28T11:06:42;102068.34;;;16.45;23.25
14269;BME280;7218;51.480;7.006;2023-02-28T11:09:18;102064.31;;;17.30;22.37
14269;BME280;7218;51.480;7.006;2023-02-28T11:11:47;102054.44;;;17.41;21.85
14269;BME280;7218;51.480;7.006;2023-02-28T11:14:19;102064.38;;;16.18;22.73
14269;BME280;7218;51.480;7.006;2023-02-28T11:16:47;102059.75;;;15.68;23.45
14269;BME280;7218;51.480;7.006;2023-02-28T11:19:19;102066.56;;;15.84;23.73
14269;BME280;7218;51.480;7.006;2023-02-28T11:21:52;102062.19;;;17.02;23.48
14269;BME280;7218;51.480;7.006;2023-02-28T11:24:23;102064.06;;;17.43;22.43
14269;BME280;7218;51.480;7.006;2023-02-28T11:26:51;102061.97;;;16.61;23.21
14269;BME280;7218;51.480;7.006;2023-02-28T11:29:20;102060.28;;;17.55;22.41
14269;BME280;7218;51.480;7.006;2023-02-28T11:34:43;102061.38;;;16.41;23.24
14269;BME280;7218;51.480;7.006;2023-02-28T11:37:13;102062.19;;;16.47;22.82
14269;BME280;7218;51.480;7.006;2023-02-28T11:39:43;102057.22;;;17.33;22.38
14269;BME280;7218;51.480;7.006;2023-02-28T11:45:16;102054.50;;;18.22;21.09
14269;BME280;7218;51.480;7.006;2023-02-28T11:47:48;102050.06;;;18.97;20.65
14269;BME280;7218;51.480;7.006;2023-02-28T11:50:38;102054.28;;;19.04;20.22
14269;BME280;7218;51.480;7.006;2023-02-28T11:53:14;102044.53;;;19.38;21.10
14269;BME280;7218;51.480;7.006;2023-02-28T11:55:49;102038.91;;;20.40;20.58
14269;BME280;7218;51.480;7.006;2023-02-28T11:58:33;102054.13;;;19.74;20.39
14269;BME280;7218;51.480;7.006;2023-02-28T12:01:35;102045.97;;;19.51;20.10
14269;BME280;7218;51.480;7.006;2023-02-28T12:04:17;102039.38;;;19.95;21.22
14269;BME280;7218;51.480;7.006;2023-02-28T12:06:54;102046.22;;;19.42;20.63
14269;BME280;7218;51.480;7.006;2023-02-28T12:09:40;102032.47;;;18.96;21.17
14269;BME280;7218;51.480;7.006;2023-02-28T12:12:19;102032.97;;;18.39;21.53
14269;BME280;7218;51.480;7.006;2023-02-28T12:15:21;102025.81;;;18.44;20.70
14269;BME280;7218;51.480;7.006;2023-02-28T12:17:59;102029.22;;;18.84;20.83
14269;BME280;7218;51.480;7.006;2023-02-28T12:20:34;102024.69;;;20.13;20.60
14269;BME280;7218;51.480;7.006;2023-02-28T12:23:19;102026.47;;;20.94;20.16
14269;BME280;7218;51.480;7.006;2023-02-28T12:25:55;102013.03;;;20.99;19.49
14269;BME280;7218;51.480;7.006;2023-02-28T12:28:31;102019.13;;;19.63;20.68
14269;BME280;7218;51.480;7.006;2023-02-28T12:31:02;102014.19;;;20.92;19.14
14269;BME280;7218;51.480;7.006;2023-02-28T12:33:34;102009.66;;;19.24;19.96
14269;BME280;7218;51.480;7.006;2023-02-28T12:36:05;102000.50;;;19.37;20.11
14269;BME280;7218;51.480;7.006;2023-02-28T12:38:38;101999.56;;;19.69;20.88
14269;BME280;7218;51.480;7.006;2023-02-28T12:41:11;101993.41;;;20.78;19.01
14269;BME280;7218;51.480;7.006;2023-02-28T12:43:43;101988.66;;;21.84;19.89
14269;BME280;7218;51.480;7.006;2023-02-28T12:46:13;101982.78;;;22.43;18.88
14269;BME280;7218;51.480;7.006;2023-02-28T12:48:44;101986.38;;;22.20;18.98
14269;BME280;7218;51.480;7.006;2023-02-28T12:51:15;101983.91;;;22.15;18.68
14269;BME280;7218;51.480;7.006;2023-02-28T12:53:52;101971.34;;;23.03;18.72
14269;BME280;7218;51.480;7.006;2023-02-28T12:56:30;101979.88;;;22.27;19.20
14269;BME280;7218;51.480;7.006;2023-02-28T12:59:03;101965.16;;;22.82;18.87
14269;BME280;7218;51.480;7.006;2023-02-28T13:01:46;101976.44;;;23.07;17.75
14269;BME280;7218;51.480;7.006;2023-02-28T13:04:34;101969.06;;;23.53;18.22
14269;BME280;7218;51.480;7.006;2023-02-28T13:10:12;101960.28;;;22.51;17.82
14269;BME280;7218;51.480;7.006;2023-02-28T13:12:47;101947.72;;;23.15;18.70
14269;BME280;7218;51.480;7.006;2023-02-28T13:15:19;101955.50;;;23.20;18.21
14269;BME280;7218;51.480;7.006;2023-02-28T13:17:50;101952.13;;;22.96;18.08
14269;BME280;7218;51.480;7.006;2023-02-28T13:20:19;101952.50;;;24.02;18.31
14269;BME280;7218;51.480;7.006;2023-02-28T13:22:47;101943.41;;;24.07;18.36
14269;BME280;7218;51.480;7.006;2023-02-28T13:34:35;101950.09;;;23.79;18.00
14269;BME280;7218;51.480;7.006;2023-02-28T13:37:35;101951.56;;;23.66;18.20
14269;BME280;7218;51.480;7.006;2023-02-28T13:40:27;101946.63;;;23.96;18.44
14269;BME280;7218;51.480;7.006;2023-02-28T13:42:54;101951.44;;;23.11;18.49
14269;BME280;7218;51.480;7.006;2023-02-28T13:45:26;101942.28;;;22.98;18.44